Time;durP1;ratioP1;P1;durP2;ratioP2;P2;SDS_P1;SDS_P2;PMS_P1;PMS_P2;Temp;Humidity;BMP_temperature;BMP_pressure;BME280_temperature;BME280_humidity;BME280_pressure;Samples;Min_cycle;Max_cycle;Signal;HPM_P1;HPM_P2
2023/10/28 00:00:09;;;;;;;3.67;1.70;;;;;;;;;;10254384;28;20073;-65
2023/10/28 00:05:09;;;;;;;2.08;1.80;;;;;;;;;;10254833;28;20095;-65
2023/10/28 00:10:09;;;;;;;4.72;2.25;;;;;;;;;;10257291;28;20530;-64
2023/10/28 00:15:08;;;;;;;6.13;1.90;;;;;;;;;;10253099;28;20092;-64
2023/10/28 00:20:08;;;;;;;4.30;2.45;;;;;;;;;;10255743;28;20978;-64
2023/10/28 00:25:08;;;;;;;2.72;1.92;;;;;;;;;;10250869;28;20064;-65
2023/10/28 00:30:07;;;;;;;3.17;2.00;;;;;;;;;;10250027;28;20495;-64
2023/10/28 00:35:07;;;;;;;5.18;1.92;;;;;;;;;;10251525;28;20038;-65
2023/10/28 00:40:06;;;;;;;4.60;1.67;;;;;;;;;;10254096;28;20103;-66
2023/10/28 00:45:08;;;;;;;3.80;1.73;;;;;;;;;;10254676;28;20104;-65
2023/10/28 00:50:09;;;;;;;2.10;1.58;;;;;;;;;;10255160;28;20076;-65
2023/10/28 00:55:09;;;;;;;3.65;1.17;;;;;;;;;;10268592;28;20091;-66
2023/10/28 01:00:10;;;;;;;3.42;1.52;;;;;;;;;;10251416;28;20092;-64
2023/10/28 01:05:11;;;;;;;6.57;1.40;;;;;;;;;;10253516;28;20085;-63
2023/10/28 01:10:10;;;;;;;1.98;1.23;;;;;;;;;;10251628;28;20064;-65
2023/10/28 01:15:10;;;;;;;3.72;1.10;;;;;;;;;;10254402;28;20089;-65
2023/10/28 01:20:10;;;;;;;3.85;1.38;;;;;;;;;;10260854;28;20077;-65
2023/10/28 01:25:10;;;;;;;2.75;1.48;;;;;;;;;;10261324;28;20092;-65
2023/10/28 01:30:13;;;;;;;1.40;1.10;;;;;;;;;;10261777;28;20080;-65
2023/10/28 01:35:12;;;;;;;2.47;1.42;;;;;;;;;;10261477;28;20073;-65
2023/10/28 01:40:17;;;;;;;2.28;1.50;;;;;;;;;;10256614;28;20076;-65
2023/10/28 01:45:15;;;;;;;;;;;;;;;;;;10256588;28;20071;-65
2023/10/28 01:50:14;;;;;;;3.72;2.10;;;;;;;;;;10258426;28;19964;-65
2023/10/28 01:55:14;;;;;;;4.68;1.50;;;;;;;;;;10258293;28;20065;-65
2023/10/28 02:00:13;;;;;;;2.35;1.52;;;;;;;;;;10260738;28;20084;-65
2023/10/28 02:05:15;;;;;;;3.85;1.60;;;;;;;;;;10259682;28;20956;-65
2023/10/28 02:10:15;;;;;;;4.13;1.83;;;;;;;;;;10256835;28;20683;-65
2023/10/28 02:15:13;;;;;;;4.53;2.25;;;;;;;;;;10259222;28;20054;-65
2023/10/28 02:20:13;;;;;;;3.50;1.67;;;;;;;;;;10260393;28;20076;-64
2023/10/28 02:25:11;;;;;;;3.13;1.58;;;;;;;;;;10275101;28;20813;-65
2023/10/28 02:30:13;;;;;;;3.28;2.03;;;;;;;;;;10258343;28;20076;-65
2023/10/28 02:35:11;;;;;;;3.50;1.48;;;;;;;;;;10259844;28;20084;-65
2023/10/28 02:40:10;;;;;;;2.00;1.50;;;;;;;;;;10255846;28;20073;-64
2023/10/28 02:45:09;;;;;;;2.95;1.65;;;;;;;;;;10260485;28;20080;-65
2023/10/28 02:50:10;;;;;;;2.75;1.63;;;;;;;;;;10258859;28;20080;-65
2023/10/28 02:55:08;;;;;;;4.80;2.95;;;;;;;;;;10258788;28;20065;-65
2023/10/28 03:00:08;;;;;;;2.42;1.40;;;;;;;;;;10258632;28;20076;-64
2023/10/28 03:05:07;;;;;;;3.00;1.52;;;;;;;;;;10258360;28;20080;-64
2023/10/28 03:10:09;;;;;;;3.88;1.20;;;;;;;;;;10257517;28;20075;-64
2023/10/28 03:15:09;;;;;;;3.63;1.45;;;;;;;;;;10250383;28;20081;-64
2023/10/28 03:20:08;;;;;;;6.15;2.00;;;;;;;;;;10251353;28;20088;-64
2023/10/28 03:25:09;;;;;;;2.47;1.67;;;;;;;;;;10257447;28;20503;-64
2023/10/28 03:30:07;;;;;;;4.45;1.38;;;;;;;;;;10256977;28;20068;-65
2023/10/28 03:35:06;;;;;;;1.98;1.23;;;;;;;;;;10256921;28;20490;-65
2023/10/28 03:40:05;;;;;;;4.20;1.60;;;;;;;;;;10256187;28;20103;-65
2023/10/28 03:45:05;;;;;;;1.95;1.23;;;;;;;;;;10256658;28;20088;-65
2023/10/28 03:50:04;;;;;;;3.30;1.85;;;;;;;;;;10250569;28;20048;-64
2023/10/28 03:55:03;;;;;;;1.90;1.40;;;;;;;;;;10256236;28;20079;-65
2023/10/28 04:00:01;;;;;;;2.85;1.70;;;;;;;;;;10255622;28;20064;-65
2023/10/28 04:05:10;;;;;;;3.97;1.67;;;;;;;;;;10261668;28;20073;-65
2023/10/28 04:10:09;;;;;;;3.58;1.92;;;;;;;;;;10254864;28;20087;-65
2023/10/28 04:15:09;;;;;;;3.58;1.40;;;;;;;;;;10254536;28;20099;-65
2023/10/28 04:20:08;;;;;;;4.55;2.05;;;;;;;;;;10253831;28;20069;-65
2023/10/28 04:25:08;;;;;;;3.78;1.75;;;;;;;;;;10255474;28;20077;-65
2023/10/28 04:30:08;;;;;;;5.35;1.85;;;;;;;;;;10251772;28;20087;-65
2023/10/28 04:35:06;;;;;;;3.85;1.90;;;;;;;;;;10255890;28;20073;-64
2023/10/28 04:40:25;;;;;;;6.03;1.92;;;;;;;;;;10252601;28;20076;-65
2023/10/28 04:45:23;;;;;;;2.72;1.85;;;;;;;;;;10255628;28;20083;-64
2023/10/28 04:50:22;;;;;;;4.72;2.40;;;;;;;;;;10255506;28;20076;-64
2023/10/28 04:55:21;;;;;;;2.10;1.90;;;;;;;;;;10264460;28;20072;-65
2023/10/28 05:00:21;;;;;;;2.70;1.80;;;;;;;;;;10258614;28;20512;-65
2023/10/28 05:05:19;;;;;;;9.65;4.53;;;;;;;;;;10262511;28;20084;-64
2023/10/28 05:10:17;;;;;;;3.72;1.65;;;;;;;;;;10262770;28;20084;-64
2023/10/28 05:15:16;;;;;;;6.22;2.20;;;;;;;;;;10263093;28;20096;-64
2023/10/28 05:20:15;;;;;;;4.28;2.15;;;;;;;;;;10258968;28;20430;-64
2023/10/28 05:25:14;;;;;;;4.95;2.15;;;;;;;;;;10264427;28;20084;-65
2023/10/28 05:30:13;;;;;;;4.13;1.80;;;;;;;;;;10258899;28;20407;-65
2023/10/28 05:35:13;;;;;;;3.25;1.90;;;;;;;;;;10262843;28;20064;-64
2023/10/28 05:40:13;;;;;;;5.40;2.22;;;;;;;;;;10250350;28;20092;-65
2023/10/28 05:45:14;;;;;;;3.03;1.77;;;;;;;;;;10261397;28;20083;-64
2023/10/28 05:50:12;;;;;;;3.50;2.40;;;;;;;;;;10262328;28;20077;-67
2023/10/28 05:55:12;;;;;;;5.53;2.00;;;;;;;;;;10259805;28;20069;-66
2023/10/28 06:00:14;;;;;;;3.17;1.67;;;;;;;;;;10269202;28;20072;-66
2023/10/28 06:05:14;;;;;;;4.88;1.83;;;;;;;;;;10267043;28;20075;-65
2023/10/28 06:10:12;;;;;;;4.55;2.13;;;;;;;;;;10250655;28;20080;-65
2023/10/28 06:15:14;;;;;;;4.70;1.92;;;;;;;;;;10258026;28;20084;-65
2023/10/28 06:20:14;;;;;;;2.55;1.52;;;;;;;;;;10259933;28;20467;-66
2023/10/28 06:25:14;;;;;;;4.25;1.77;;;;;;;;;;10253352;28;20564;-65
2023/10/28 06:30:14;;;;;;;1.73;1.05;;;;;;;;;;10254052;28;20064;-64
2023/10/28 06:35:16;;;;;;;1.85;1.20;;;;;;;;;;10252753;28;20478;-64
2023/10/28 06:40:14;;;;;;;2.95;1.83;;;;;;;;;;10255555;28;20112;-64
2023/10/28 06:45:14;;;;;;;2.42;1.30;;;;;;;;;;10251045;28;20077;-64
2023/10/28 06:50:12;;;;;;;2.85;1.90;;;;;;;;;;10253580;28;20083;-64
2023/10/28 06:55:12;;;;;;;3.78;2.25;;;;;;;;;;10272945;28;20515;-64
2023/10/28 07:00:13;;;;;;;4.53;2.00;;;;;;;;;;10257361;28;20084;-64
2023/10/28 07:05:14;;;;;;;8.30;1.80;;;;;;;;;;10272990;28;20084;-65
2023/10/28 07:10:14;;;;;;;3.33;1.33;;;;;;;;;;10259193;28;20061;-64
2023/10/28 07:15:12;;;;;;;1.88;1.58;;;;;;;;;;10257425;28;20084;-66
2023/10/28 07:20:11;;;;;;;4.82;1.70;;;;;;;;;;10253747;28;20587;-64
2023/10/28 07:25:11;;;;;;;3.80;1.95;;;;;;;;;;10256197;28;20475;-65
2023/10/28 07:30:10;;;;;;;3.72;1.60;;;;;;;;;;10257561;28;20057;-65
2023/10/28 07:35:09;;;;;;;4.28;2.33;;;;;;;;;;10255824;28;20072;-65
2023/10/28 07:40:11;;;;;;;5.68;1.90;;;;;;;;;;10256197;28;20443;-65
2023/10/28 07:45:11;;;;;;;3.83;2.08;;;;;;;;;;10257195;28;20080;-65
2023/10/28 07:50:09;;;;;;;2.60;1.80;;;;;;;;;;10254312;28;20065;-65
2023/10/28 07:55:08;;;;;;;3.13;1.80;;;;;;;;;;10253570;28;20080;-65
2023/10/28 08:00:10;;;;;;;5.18;2.10;;;;;;;;;;10256820;28;20089;-65
2023/10/28 08:05:13;;;;;;;2.83;1.70;;;;;;;;;;10254466;28;20506;-65
2023/10/28 08:10:11;;;;;;;3.47;1.88;;;;;;;;;;10254535;28;20075;-65
2023/10/28 08:15:09;;;;;;;6.25;1.88;;;;;;;;;;10254661;28;20518;-65
2023/10/28 08:20:08;;;;;;;5.60;2.55;;;;;;;;;;10257446;28;20096;-66
2023/10/28 08:25:10;;;;;;;5.47;1.77;;;;;;;;;;10256190;28;20064;-65
2023/10/28 08:30:09;;;;;;;4.82;1.67;;;;;;;;;;10249708;28;20092;-65
2023/10/28 08:35:09;;;;;;;3.78;2.05;;;;;;;;;;10251774;28;20073;-65
2023/10/28 08:40:11;;;;;;;6.05;1.77;;;;;;;;;;10253093;28;20318;-65
2023/10/28 08:45:10;;;;;;;3.83;1.70;;;;;;;;;;10259568;28;20077;-65
2023/10/28 08:50:08;;;;;;;12.23;1.90;;;;;;;;;;10258554;28;20068;-65
2023/10/28 08:55:10;;;;;;;2.55;1.50;;;;;;;;;;10253243;28;20068;-65
2023/10/28 09:00:14;;;;;;;5.35;1.55;;;;;;;;;;10255501;28;20080;-66
2023/10/28 09:05:12;;;;;;;6.70;2.00;;;;;;;;;;10251497;28;20096;-66
2023/10/28 09:10:12;;;;;;;4.25;1.60;;;;;;;;;;10255659;28;20480;-66
2023/10/28 09:15:12;;;;;;;2.78;1.40;;;;;;;;;;10252765;28;20080;-65
2023/10/28 09:20:11;;;;;;;1.98;1.23;;;;;;;;;;10260027;28;20076;-65
2023/10/28 09:25:14;;;;;;;4.53;1.60;;;;;;;;;;10259941;28;20073;-64
2023/10/28 09:30:13;;;;;;;6.10;1.60;;;;;;;;;;10253626;28;20067;-65
2023/10/28 09:35:11;;;;;;;3.60;1.35;;;;;;;;;;10252111;28;20556;-65
2023/10/28 09:40:12;;;;;;;7.18;1.88;;;;;;;;;;10252971;28;20507;-65
2023/10/28 09:45:12;;;;;;;6.85;1.60;;;;;;;;;;10266139;28;20088;-65
2023/10/28 09:50:12;;;;;;;7.10;1.88;;;;;;;;;;10262263;28;20310;-65
2023/10/28 09:55:15;;;;;;;5.35;2.00;;;;;;;;;;10265137;28;20070;-66
2023/10/28 10:00:19;;;;;;;7.15;1.90;;;;;;;;;;10259208;28;20501;-66
2023/10/28 10:05:24;;;;;;;5.28;1.60;;;;;;;;;;10264711;28;20085;-65
2023/10/28 10:10:22;;;;;;;10.77;2.40;;;;;;;;;;10262292;28;20075;-65
2023/10/28 10:15:23;;;;;;;4.47;1.95;;;;;;;;;;10260322;28;20080;-65
2023/10/28 10:20:25;;;;;;;4.63;1.65;;;;;;;;;;10260581;28;20080;-64
2023/10/28 10:25:30;;;;;;;3.78;1.70;;;;;;;;;;10262961;28;20545;-64
2023/10/28 10:30:34;;;;;;;4.40;1.60;;;;;;;;;;10258708;28;20581;-64
2023/10/28 10:35:32;;;;;;;;;;;;;;;;;;10264324;28;20097;-65
2023/10/28 10:40:32;;;;;;;7.20;2.28;;;;;;;;;;10258769;28;20024;-64
2023/10/28 10:45:30;;;;;;;6.75;2.17;;;;;;;;;;10258609;28;20088;-64
2023/10/28 10:50:31;;;;;;;3.83;2.05;;;;;;;;;;10265171;28;20073;-65
2023/10/28 10:55:29;;;;;;;2.80;1.85;;;;;;;;;;10262202;28;20073;-65
2023/10/28 11:00:27;;;;;;;4.85;1.70;;;;;;;;;;10259354;28;20079;-64
2023/10/28 11:05:29;;;;;;;5.78;2.40;;;;;;;;;;10256686;28;20080;-63
2023/10/28 11:10:28;;;;;;;5.25;1.80;;;;;;;;;;10262795;28;20068;-65
2023/10/28 11:15:28;;;;;;;2.42;1.90;;;;;;;;;;10254642;28;20084;-64
2023/10/28 11:20:30;;;;;;;10.52;2.58;;;;;;;;;;10257016;28;20069;-64
2023/10/28 11:25:33;;;;;;;6.20;1.67;;;;;;;;;;10253782;28;20081;-63
2023/10/28 11:30:31;;;;;;;2.22;1.48;;;;;;;;;;10252302;28;20076;-63
2023/10/28 11:35:30;;;;;;;7.95;1.50;;;;;;;;;;10251455;28;20228;-64
2023/10/28 11:40:29;;;;;;;2.90;1.60;;;;;;;;;;10251383;28;20073;-64
2023/10/28 11:45:28;;;;;;;2.72;1.52;;;;;;;;;;10257446;28;20099;-64
2023/10/28 11:50:27;;;;;;;3.25;1.45;;;;;;;;;;10254515;28;20521;-64
2023/10/28 11:55:25;;;;;;;3.45;1.45;;;;;;;;;;10257495;28;20107;-64
2023/10/28 12:00:25;;;;;;;4.50;1.40;;;;;;;;;;10255217;28;20077;-64
2023/10/28 12:05:25;;;;;;;4.75;1.15;;;;;;;;;;10256611;28;20423;-64
2023/10/28 12:10:23;;;;;;;4.57;1.50;;;;;;;;;;10255792;28;20104;-64
2023/10/28 12:15:22;;;;;;;5.43;2.17;;;;;;;;;;10256006;28;20077;-64
2023/10/28 12:20:20;;;;;;;4.10;1.33;;;;;;;;;;10255511;28;20068;-64
2023/10/28 12:25:20;;;;;;;10.93;1.90;;;;;;;;;;10250311;28;20071;-64
2023/10/28 12:30:18;;;;;;;5.47;1.65;;;;;;;;;;10251235;28;20515;-64
2023/10/28 12:35:17;;;;;;;2.08;1.50;;;;;;;;;;10254912;28;20075;-64
2023/10/28 12:40:15;;;;;;;3.00;1.75;;;;;;;;;;10255966;28;20073;-66
2023/10/28 12:45:15;;;;;;;2.95;2.00;;;;;;;;;;10254564;28;20041;-64
2023/10/28 12:50:17;;;;;;;4.22;2.53;;;;;;;;;;10252589;28;20077;-64
2023/10/28 12:55:16;;;;;;;12.25;2.85;;;;;;;;;;10254753;28;20073;-64
2023/10/28 13:00:17;;;;;;;5.47;1.98;;;;;;;;;;10254204;28;20451;-64
2023/10/28 13:05:17;;;;;;;2.53;1.60;;;;;;;;;;10253697;28;20073;-64
2023/10/28 13:10:15;;;;;;;3.33;1.70;;;;;;;;;;10252690;28;20537;-64
2023/10/28 13:15:13;;;;;;;3.15;1.55;;;;;;;;;;10259182;28;20089;-65
2023/10/28 13:20:13;;;;;;;4.10;1.60;;;;;;;;;;10263213;28;20078;-66
2023/10/28 13:25:11;;;;;;;5.50;1.65;;;;;;;;;;10261000;28;20061;-65
2023/10/28 13:30:12;;;;;;;5.13;1.50;;;;;;;;;;10261892;28;20067;-63
2023/10/28 13:35:11;;;;;;;3.83;2.10;;;;;;;;;;10261900;28;20072;-64
2023/10/28 13:40:11;;;;;;;7.47;1.70;;;;;;;;;;10261572;28;20489;-65
2023/10/28 13:45:10;;;;;;;4.25;1.70;;;;;;;;;;10259511;28;20081;-65
2023/10/28 13:50:09;;;;;;;9.93;2.15;;;;;;;;;;10258615;28;20473;-64
2023/10/28 13:55:07;;;;;;;7.22;2.13;;;;;;;;;;10260070;28;20072;-65
2023/10/28 14:00:10;;;;;;;6.60;2.13;;;;;;;;;;10260157;28;20072;-64
2023/10/28 14:05:11;;;;;;;8.88;1.88;;;;;;;;;;10260252;28;20083;-64
2023/10/28 14:10:10;;;;;;;2.75;1.90;;;;;;;;;;10261377;28;20529;-66
2023/10/28 14:15:12;;;;;;;3.90;1.80;;;;;;;;;;10256866;28;20100;-64
2023/10/28 14:20:10;;;;;;;9.20;2.33;;;;;;;;;;10259657;28;20168;-64
2023/10/28 14:25:09;;;;;;;5.85;2.70;;;;;;;;;;10260860;28;20079;-64
2023/10/28 14:30:07;;;;;;;8.70;2.22;;;;;;;;;;10253230;28;20072;-64
2023/10/28 14:35:08;;;;;;;4.53;3.10;;;;;;;;;;10259979;28;20075;-63
2023/10/28 14:40:07;;;;;;;11.95;5.20;;;;;;;;;;10259361;28;20164;-64
2023/10/28 14:45:11;;;;;;;8.27;3.10;;;;;;;;;;10259305;28;20069;-64
2023/10/28 14:50:11;;;;;;;7.90;2.53;;;;;;;;;;10259114;28;20475;-64
2023/10/28 14:55:10;;;;;;;7.72;2.70;;;;;;;;;;10257950;28;20072;-64
2023/10/28 15:00:10;;;;;;;9.20;2.72;;;;;;;;;;10258673;28;20081;-64
2023/10/28 15:05:08;;;;;;;10.30;6.38;;;;;;;;;;10258490;28;20076;-64
2023/10/28 15:10:09;;;;;;;13.52;8.27;;;;;;;;;;10257058;28;20079;-64
2023/10/28 15:15:07;;;;;;;7.78;3.00;;;;;;;;;;10249892;28;20085;-64
2023/10/28 15:20:07;;;;;;;8.70;4.68;;;;;;;;;;10257657;28;20077;-63
2023/10/28 15:25:07;;;;;;;10.02;5.80;;;;;;;;;;10257177;28;20083;-64
2023/10/28 15:30:10;;;;;;;13.55;7.43;;;;;;;;;;10257466;28;20067;-63
2023/10/28 15:35:09;;;;;;;8.32;5.13;;;;;;;;;;10251147;28;20072;-63
2023/10/28 15:40:08;;;;;;;6.18;3.97;;;;;;;;;;10257042;28;20490;-64
2023/10/28 15:45:08;;;;;;;13.25;5.40;;;;;;;;;;10257190;28;20076;-63
2023/10/28 15:50:06;;;;;;;7.40;4.13;;;;;;;;;;10256699;28;20084;-63
2023/10/28 15:55:08;;;;;;;5.85;3.75;;;;;;;;;;10254634;28;20075;-63
2023/10/28 16:00:08;;;;;;;7.15;3.63;;;;;;;;;;10253968;28;20148;-63
2023/10/28 16:05:07;;;;;;;6.38;4.32;;;;;;;;;;10255732;28;20077;-64
2023/10/28 16:10:06;;;;;;;8.90;4.43;;;;;;;;;;10254363;28;20076;-65
2023/10/28 16:15:05;;;;;;;11.02;3.47;;;;;;;;;;10256170;28;20479;-64
2023/10/28 16:20:06;;;;;;;8.05;3.58;;;;;;;;;;10254646;28;20091;-64
2023/10/28 16:25:07;;;;;;;7.88;4.43;;;;;;;;;;10254693;28;20069;-63
2023/10/28 16:30:06;;;;;;;8.38;3.05;;;;;;;;;;10255926;28;20076;-63
2023/10/28 16:35:06;;;;;;;8.25;3.13;;;;;;;;;;10253543;28;20072;-64
2023/10/28 16:40:06;;;;;;;11.05;3.58;;;;;;;;;;10251363;28;20087;-63
2023/10/28 16:45:04;;;;;;;13.85;5.63;;;;;;;;;;10252196;28;20080;-63
2023/10/28 16:50:04;;;;;;;14.10;3.92;;;;;;;;;;10252930;28;20079;-64
2023/10/28 16:55:04;;;;;;;8.63;4.85;;;;;;;;;;10254372;28;20071;-64
2023/10/28 17:00:03;;;;;;;8.98;4.40;;;;;;;;;;10253982;28;20081;-64
2023/10/28 17:05:02;;;;;;;5.70;3.35;;;;;;;;;;10253989;28;20072;-65
2023/10/28 17:10:01;;;;;;;4.63;3.25;;;;;;;;;;10255214;28;20077;-64
2023/10/28 17:15:01;;;;;;;7.90;3.10;;;;;;;;;;10252294;28;20544;-64
2023/10/28 17:19:59;;;;;;;8.75;3.38;;;;;;;;;;10254259;28;20076;-64
2023/10/28 17:24:58;;;;;;;5.93;3.15;;;;;;;;;;10254164;28;20091;-64
2023/10/28 17:29:56;;;;;;;5.95;2.90;;;;;;;;;;10254928;28;20077;-64
2023/10/28 17:34:56;;;;;;;9.57;3.80;;;;;;;;;;10254114;28;20083;-64
2023/10/28 17:39:54;;;;;;;8.85;2.90;;;;;;;;;;10249498;28;20072;-64
2023/10/28 17:44:52;;;;;;;4.32;2.70;;;;;;;;;;10253157;28;20091;-63
2023/10/28 17:49:51;;;;;;;5.30;2.95;;;;;;;;;;10253723;28;20088;-64
2023/10/28 17:54:50;;;;;;;6.13;2.88;;;;;;;;;;10256081;28;20065;-65
2023/10/28 17:59:48;;;;;;;5.70;3.35;;;;;;;;;;10257897;28;20087;-64
2023/10/28 18:04:47;;;;;;;7.30;3.42;;;;;;;;;;10264236;28;20053;-64
2023/10/28 18:09:46;;;;;;;3.92;2.45;;;;;;;;;;10263030;28;20069;-63
2023/10/28 18:14:45;;;;;;;6.00;3.13;;;;;;;;;;10261689;28;20199;-64
2023/10/28 18:19:44;;;;;;;7.75;2.97;;;;;;;;;;10257461;28;20081;-64
2023/10/28 18:24:42;;;;;;;6.65;2.95;;;;;;;;;;10264625;28;20069;-64
2023/10/28 18:29:41;;;;;;;6.07;3.42;;;;;;;;;;10257930;28;20084;-64
2023/10/28 18:34:41;;;;;;;7.75;2.97;;;;;;;;;;10261638;28;20073;-64
2023/10/28 18:39:40;;;;;;;7.05;2.97;;;;;;;;;;10258892;28;20065;-63
2023/10/28 18:44:38;;;;;;;6.35;2.75;;;;;;;;;;10261135;28;20103;-65
2023/10/28 18:49:36;;;;;;;6.05;3.05;;;;;;;;;;10264960;28;20073;-65
2023/10/28 18:54:36;;;;;;;8.55;2.63;;;;;;;;;;10257847;28;20068;-64
2023/10/28 18:59:34;;;;;;;5.55;3.00;;;;;;;;;;10266702;28;20088;-64
2023/10/28 19:04:33;;;;;;;6.72;3.38;;;;;;;;;;10258522;28;20060;-64
2023/10/28 19:09:31;;;;;;;12.23;3.55;;;;;;;;;;10257842;28;20077;-64
2023/10/28 19:14:31;;;;;;;9.85;4.40;;;;;;;;;;10258380;28;20096;-64
2023/10/28 19:19:29;;;;;;;8.85;4.05;;;;;;;;;;10265014;28;20160;-64
2023/10/28 19:24:27;;;;;;;6.18;3.85;;;;;;;;;;10248858;28;20068;-65
2023/10/28 19:29:25;;;;;;;9.93;4.93;;;;;;;;;;10249249;28;20084;-65
2023/10/28 19:34:25;;;;;;;7.90;4.30;;;;;;;;;;10252502;28;20077;-65
2023/10/28 19:39:23;;;;;;;8.15;3.65;;;;;;;;;;10256395;28;20459;-64
2023/10/28 19:44:22;;;;;;;7.38;3.40;;;;;;;;;;10254329;28;20065;-64
2023/10/28 19:49:20;;;;;;;7.65;3.50;;;;;;;;;;10256311;28;20069;-65
2023/10/28 19:54:20;;;;;;;13.35;3.92;;;;;;;;;;10258018;28;20072;-65
2023/10/28 19:59:18;;;;;;;5.78;3.33;;;;;;;;;;10251466;28;20072;-64
2023/10/28 20:04:16;;;;;;;6.25;3.83;;;;;;;;;;10255259;28;20490;-64
2023/10/28 20:09:15;;;;;;;9.18;3.67;;;;;;;;;;10255634;28;20080;-64
2023/10/28 20:14:16;;;;;;;6.85;4.20;;;;;;;;;;10256046;28;20077;-65
2023/10/28 20:19:14;;;;;;;7.80;3.67;;;;;;;;;;10256256;28;20076;-65
2023/10/28 20:24:13;;;;;;;8.13;4.35;;;;;;;;;;10255879;28;20072;-65
2023/10/28 20:29:11;;;;;;;6.00;3.97;;;;;;;;;;10270245;28;20064;-65
2023/10/28 20:34:12;;;;;;;5.28;3.17;;;;;;;;;;10256367;28;20060;-65
2023/10/28 20:39:13;;;;;;;5.72;3.22;;;;;;;;;;10255865;28;20571;-64
2023/10/28 20:44:11;;;;;;;5.40;3.10;;;;;;;;;;10254333;28;20080;-65
2023/10/28 20:49:10;;;;;;;5.80;3.25;;;;;;;;;;10254885;28;20152;-65
2023/10/28 20:54:11;;;;;;;6.15;3.17;;;;;;;;;;10255290;28;20083;-65
2023/10/28 20:59:09;;;;;;;6.97;2.90;;;;;;;;;;10255766;28;20049;-65
2023/10/28 21:04:08;;;;;;;7.03;3.63;;;;;;;;;;10254613;28;20071;-65
2023/10/28 21:09:07;;;;;;;5.90;3.47;;;;;;;;;;10252021;28;20073;-65
2023/10/28 21:14:06;;;;;;;6.85;3.08;;;;;;;;;;10256058;28;20088;-65
2023/10/28 21:19:04;;;;;;;8.15;3.75;;;;;;;;;;10255803;28;20037;-65
2023/10/28 21:24:04;;;;;;;11.32;3.63;;;;;;;;;;10254808;28;20048;-65
2023/10/28 21:29:05;;;;;;;8.20;4.65;;;;;;;;;;10255094;28;20057;-65
2023/10/28 21:34:03;;;;;;;4.95;3.63;;;;;;;;;;10256376;28;20068;-65
2023/10/28 21:39:03;;;;;;;6.30;3.08;;;;;;;;;;10264323;28;20071;-64
2023/10/28 21:44:03;;;;;;;7.25;3.97;;;;;;;;;;10259825;28;20061;-65
2023/10/28 21:49:03;;;;;;;5.85;3.30;;;;;;;;;;10264489;28;20041;-65
2023/10/28 21:54:01;;;;;;;6.00;3.55;;;;;;;;;;10256531;28;20081;-64
2023/10/28 21:58:59;;;;;;;9.98;3.60;;;;;;;;;;10262776;28;20435;-64
2023/10/28 22:03:57;;;;;;;7.65;3.83;;;;;;;;;;10261622;28;20538;-64
2023/10/28 22:08:57;;;;;;;6.82;3.30;;;;;;;;;;10260728;28;20072;-64
2023/10/28 22:13:55;;;;;;;4.30;3.03;;;;;;;;;;10262011;28;20088;-65
2023/10/28 22:18:53;;;;;;;4.80;2.95;;;;;;;;;;10259797;28;20079;-64
2023/10/28 22:23:52;;;;;;;4.80;3.05;;;;;;;;;;10262329;28;20307;-64
2023/10/28 22:28:52;;;;;;;4.63;3.08;;;;;;;;;;10257687;28;20073;-65
2023/10/28 22:33:50;;;;;;;5.75;2.63;;;;;;;;;;10260018;28;20075;-64
2023/10/28 22:38:48;;;;;;;7.28;3.25;;;;;;;;;;10260969;28;20468;-64
2023/10/28 22:43:47;;;;;;;6.97;2.47;;;;;;;;;;10261234;28;20076;-65
2023/10/28 22:48:46;;;;;;;6.47;2.88;;;;;;;;;;10256573;28;20073;-65
2023/10/28 22:53:44;;;;;;;6.53;2.38;;;;;;;;;;10258273;28;20094;-65
2023/10/28 22:58:43;;;;;;;4.63;2.80;;;;;;;;;;10259396;28;20073;-65
2023/10/28 23:03:41;;;;;;;5.38;2.85;;;;;;;;;;10258872;28;20069;-65
2023/10/28 23:08:41;;;;;;;3.38;2.38;;;;;;;;;;10259785;28;20514;-65
2023/10/28 23:13:39;;;;;;;5.82;2.60;;;;;;;;;;10252478;28;20093;-65
2023/10/28 23:18:37;;;;;;;8.50;2.97;;;;;;;;;;10259487;28;20060;-65
2023/10/28 23:23:35;;;;;;;4.93;3.08;;;;;;;;;;10257479;28;20509;-65
2023/10/28 23:28:35;;;;;;;6.40;2.25;;;;;;;;;;10259471;28;20067;-65
2023/10/28 23:33:33;;;;;;;6.45;2.47;;;;;;;;;;10257874;28;20080;-65
2023/10/28 23:38:31;;;;;;;5.30;2.50;;;;;;;;;;10258480;28;20071;-65
2023/10/28 23:43:30;;;;;;;2.80;2.22;;;;;;;;;;10256656;28;20075;-64
2023/10/28 23:48:29;;;;;;;5.03;2.60;;;;;;;;;;10256884;28;20080;-65
2023/10/28 23:53:28;;;;;;;4.13;2.25;;;;;;;;;;10256132;28;20507;-65
2023/10/28 23:58:26;;;;;;;6.75;2.40;;;;;;;;;;10257203;28;20069;-65
